Time;durP1;ratioP1;P1;durP2;ratioP2;P2;SDS_P1;SDS_P2;PMS_P1;PMS_P2;Temp;Humidity;BMP_temperature;BMP_pressure;BME280_temperature;BME280_humidity;BME280_pressure;Samples;Min_cycle;Max_cycle;Signal;HPM_P1;HPM_P2
2022/02/25 00:00:42;;;;;;;;;;;23.60;45.00;;;;;;1516402;78;717;-70
2022/02/25 00:02:43;;;;;;;;;;;23.60;45.00;;;;;;1510541;78;671;-68
2022/02/25 00:04:45;;;;;;;;;;;23.70;45.10;;;;;;1507474;78;1128;-69
2022/02/25 00:06:47;;;;;;;;;;;23.60;45.10;;;;;;1508572;78;802;-69
2022/02/25 00:08:49;;;;;;;;;;;23.70;45.20;;;;;;1511153;78;781;-68
2022/02/25 00:10:51;;;;;;;;;;;23.60;45.00;;;;;;1511281;78;777;-69
2022/02/25 00:12:53;;;;;;;;;;;23.60;45.00;;;;;;1511182;78;1116;-69
2022/02/25 00:14:55;;;;;;;;;;;23.60;45.10;;;;;;1511228;78;779;-67
2022/02/25 00:16:56;;;;;;;;;;;23.70;45.20;;;;;;1507098;78;1945;-70
2022/02/25 00:18:58;;;;;;;;;;;23.60;45.10;;;;;;1507450;78;726;-68
2022/02/25 00:21:00;;;;;;;;;;;23.60;45.10;;;;;;1511137;78;733;-68
2022/02/25 00:23:04;;;;;;;;;;;23.60;45.20;;;;;;1463690;80;1161;-68
2022/02/25 00:25:07;;;;;;;;;;;23.60;45.20;;;;;;1518555;77;865;-67
2022/02/25 00:27:09;;;;;;;;;;;23.60;45.20;;;;;;1518638;77;769;-70
2022/02/25 00:29:11;;;;;;;;;;;23.60;45.10;;;;;;1514595;77;941;-66
2022/02/25 00:31:13;;;;;;;;;;;23.60;45.20;;;;;;1518713;77;807;-67
2022/02/25 00:33:16;;;;;;;;;;;23.50;45.20;;;;;;1514720;77;1147;-67
2022/02/25 00:35:19;;;;;;;;;;;23.60;45.20;;;;;;1510728;77;711;-65
2022/02/25 00:37:20;;;;;;;;;;;23.60;45.20;;;;;;1514601;77;1911;-67
2022/02/25 00:39:22;;;;;;;;;;;23.60;45.20;;;;;;1519027;77;1090;-68
2022/02/25 00:41:24;;;;;;;;;;;23.60;45.20;;;;;;1514908;77;732;-69
2022/02/25 00:43:26;;;;;;;;;;;23.50;45.30;;;;;;1518664;77;1165;-70
2022/02/25 00:45:28;;;;;;;;;;;23.60;45.40;;;;;;1514608;77;788;-69
2022/02/25 00:47:30;;;;;;;;;;;23.60;45.40;;;;;;1518694;77;910;-69
2022/02/25 00:49:32;;;;;;;;;;;23.60;45.40;;;;;;1518605;76;786;-68
2022/02/25 00:51:34;;;;;;;;;;;23.60;45.30;;;;;;1515023;77;794;-66
2022/02/25 00:53:36;;;;;;;;;;;23.60;45.30;;;;;;1518766;77;1166;-68
2022/02/25 00:55:37;;;;;;;;;;;23.60;45.40;;;;;;1514939;76;799;-67
2022/02/25 00:57:46;;;;;;;;;;;23.60;45.40;;;;;;1514877;77;1956;-68
2022/02/25 00:59:47;;;;;;;;;;;23.60;45.40;;;;;;1512411;77;731;-70
2022/02/25 01:01:49;;;;;;;;;;;23.60;45.40;;;;;;1518958;77;792;-68
2022/02/25 01:03:51;;;;;;;;;;;23.60;45.50;;;;;;1514852;77;1153;-71
2022/02/25 01:05:53;;;;;;;;;;;23.60;45.50;;;;;;1512129;77;754;-69
2022/02/25 01:07:55;;;;;;;;;;;23.60;45.40;;;;;;1510857;77;778;-67
2022/02/25 01:09:57;;;;;;;;;;;23.60;45.40;;;;;;1514420;77;802;-68
2022/02/25 01:11:59;;;;;;;;;;;23.60;45.50;;;;;;1514887;77;711;-68
2022/02/25 01:14:01;;;;;;;;;;;23.60;45.50;;;;;;1518940;77;1154;-68
2022/02/25 01:16:03;;;;;;;;;;;23.60;45.50;;;;;;1513578;77;698;-70
2022/02/25 01:18:07;;;;;;;;;;;23.60;45.50;;;;;;1518951;77;1949;-69
2022/02/25 01:20:09;;;;;;;;;;;23.60;45.50;;;;;;1514816;77;713;-69
2022/02/25 01:22:11;;;;;;;;;;;23.60;45.50;;;;;;1519069;77;869;-69
2022/02/25 01:24:13;;;;;;;;;;;23.60;45.50;;;;;;1514882;77;1172;-69
2022/02/25 01:26:15;;;;;;;;;;;23.60;45.50;;;;;;1518837;77;792;-70
2022/02/25 01:28:17;;;;;;;;;;;23.60;45.50;;;;;;1519055;77;742;-70
2022/02/25 01:30:19;;;;;;;;;;;23.60;45.50;;;;;;1512969;77;779;-69
2022/02/25 01:32:20;;;;;;;;;;;23.60;45.50;;;;;;1515071;77;797;-70
2022/02/25 01:34:22;;;;;;;;;;;23.60;45.50;;;;;;1519018;77;1162;-69
2022/02/25 01:36:24;;;;;;;;;;;23.60;45.50;;;;;;1518919;77;1934;-68
2022/02/25 01:38:27;;;;;;;;;;;23.60;45.50;;;;;;1518780;77;771;-69
2022/02/25 01:40:29;;;;;;;;;;;23.60;45.50;;;;;;1519459;77;794;-70
2022/02/25 01:42:31;;;;;;;;;;;23.60;45.50;;;;;;1514943;77;792;-68
2022/02/25 01:44:33;;;;;;;;;;;23.60;45.50;;;;;;1509490;77;1121;-68
2022/02/25 01:46:34;;;;;;;;;;;23.60;45.50;;;;;;1514605;76;810;-68
2022/02/25 01:48:36;;;;;;;;;;;23.60;45.50;;;;;;1520932;77;854;-69
2022/02/25 01:50:38;;;;;;;;;;;23.60;45.60;;;;;;1514890;77;929;-68
2022/02/25 01:52:40;;;;;;;;;;;23.60;45.50;;;;;;1515142;77;758;-69
2022/02/25 01:54:42;;;;;;;;;;;23.60;45.50;;;;;;1515571;77;1108;-68
2022/02/25 01:56:44;;;;;;;;;;;23.60;45.60;;;;;;1523046;77;1911;-70
2022/02/25 01:58:46;;;;;;;;;;;23.60;45.60;;;;;;1516741;77;812;-68
2022/02/25 02:00:48;;;;;;;;;;;23.60;45.60;;;;;;1512828;77;807;-69
2022/02/25 02:02:50;;;;;;;;;;;23.60;45.60;;;;;;1519027;77;1138;-69
2022/02/25 02:04:52;;;;;;;;;;;23.60;45.70;;;;;;1517917;76;729;-69
2022/02/25 02:06:54;;;;;;;;;;;23.60;45.60;;;;;;1517997;77;829;-70
2022/02/25 02:08:56;;;;;;;;;;;23.50;45.70;;;;;;1518607;77;731;-69
2022/02/25 02:10:58;;;;;;;;;;;23.60;45.70;;;;;;1515337;77;711;-69
2022/02/25 02:12:59;;;;;;;;;;;23.50;45.70;;;;;;1515216;77;1148;-70
2022/02/25 02:15:04;;;;;;;;;;;23.60;45.70;;;;;;1519198;77;740;-71
2022/02/25 02:17:05;;;;;;;;;;;23.60;45.70;;;;;;1512224;77;1917;-70
2022/02/25 02:19:07;;;;;;;;;;;23.60;45.70;;;;;;1528366;77;1029;-67
2022/02/25 02:21:09;;;;;;;;;;;23.60;45.70;;;;;;1523905;77;710;-69
2022/02/25 02:23:11;;;;;;;;;;;23.60;45.70;;;;;;1513803;77;1127;-69
2022/02/25 02:25:12;;;;;;;;;;;23.60;45.70;;;;;;1544612;73;2100;-67
2022/02/25 02:27:14;;;;;;;;;;;23.60;45.70;;;;;;1583324;75;702;-69
2022/02/25 02:29:16;;;;;;;;;;;23.60;45.70;;;;;;1583596;75;684;-69
2022/02/25 02:31:18;;;;;;;;;;;23.60;45.70;;;;;;1583780;75;722;-67
2022/02/25 02:33:21;;;;;;;;;;;23.60;45.70;;;;;;1583767;75;702;-68
2022/02/25 02:35:23;;;;;;;;;;;23.60;45.70;;;;;;1573703;74;1198;-68
2022/02/25 02:37:24;;;;;;;;;;;23.60;45.70;;;;;;1550279;75;1934;-68
2022/02/25 02:39:26;;;;;;;;;;;23.60;45.80;;;;;;1560861;75;781;-65
2022/02/25 02:41:28;;;;;;;;;;;23.60;45.80;;;;;;1559344;75;752;-69
2022/02/25 02:43:30;;;;;;;;;;;23.60;45.80;;;;;;1555816;75;688;-69
2022/02/25 02:45:32;;;;;;;;;;;23.50;45.70;;;;;;1556126;75;1141;-70
2022/02/25 02:47:34;;;;;;;;;;;23.60;45.70;;;;;;1551201;75;673;-70
2022/02/25 02:49:36;;;;;;;;;;;23.60;45.70;;;;;;1554039;75;785;-69
2022/02/25 02:51:37;;;;;;;;;;;23.60;45.70;;;;;;1558882;75;748;-69
2022/02/25 02:53:39;;;;;;;;;;;23.50;45.70;;;;;;1549956;75;835;-72
2022/02/25 02:55:42;;;;;;;;;;;23.50;45.70;;;;;;1578984;74;1112;-70
2022/02/25 02:57:44;;;;;;;;;;;23.60;45.70;;;;;;1552987;75;1936;-69
2022/02/25 02:59:45;;;;;;;;;;;23.60;45.70;;;;;;1566647;75;743;-66
2022/02/25 03:01:47;;;;;;;;;;;23.50;45.70;;;;;;1558571;75;787;-68
2022/02/25 03:03:49;;;;;;;;;;;23.60;45.70;;;;;;1563665;75;810;-68
2022/02/25 03:05:51;;;;;;;;;;;23.50;45.70;;;;;;1568684;74;1142;-68
2022/02/25 03:07:53;;;;;;;;;;;23.60;45.80;;;;;;1555585;75;793;-69
2022/02/25 03:09:55;;;;;;;;;;;23.50;45.80;;;;;;1559559;75;695;-68
2022/02/25 03:11:57;;;;;;;;;;;23.50;45.80;;;;;;1556477;75;692;-67
2022/02/25 03:13:59;;;;;;;;;;;23.50;45.80;;;;;;1551357;75;715;-65
2022/02/25 03:16:01;;;;;;;;;;;23.50;45.80;;;;;;1548990;75;1099;-69
2022/02/25 03:18:02;;;;;;;;;;;23.60;45.80;;;;;;1554110;75;1996;-69
2022/02/25 03:20:05;;;;;;;;;;;23.50;45.80;;;;;;1555955;75;708;-68
2022/02/25 03:22:07;;;;;;;;;;;23.50;45.80;;;;;;1556262;75;703;-68
2022/02/25 03:24:09;;;;;;;;;;;23.50;45.80;;;;;;1552130;75;1135;-68
2022/02/25 03:26:11;;;;;;;;;;;23.50;45.80;;;;;;1550208;75;798;-69
2022/02/25 03:28:13;;;;;;;;;;;23.60;45.80;;;;;;1560588;75;815;-68
2022/02/25 03:30:15;;;;;;;;;;;23.50;45.90;;;;;;1557550;75;706;-69
2022/02/25 03:32:17;;;;;;;;;;;23.50;45.80;;;;;;1555106;75;697;-68
2022/02/25 03:34:18;;;;;;;;;;;23.60;46.00;;;;;;1564205;75;1158;-69
2022/02/25 03:36:20;;;;;;;;;;;23.60;46.00;;;;;;1549406;75;744;-70
2022/02/25 03:38:23;;;;;;;;;;;23.60;46.00;;;;;;1560786;75;1951;-67
2022/02/25 03:40:27;;;;;;;;;;;23.60;46.00;;;;;;1562101;74;733;-71
2022/02/25 03:42:28;;;;;;;;;;;23.60;46.10;;;;;;1554174;75;1153;-69
2022/02/25 03:44:30;;;;;;;;;;;23.60;46.00;;;;;;1563273;75;1154;-69
2022/02/25 03:46:32;;;;;;;;;;;23.60;46.00;;;;;;1557462;75;738;-68
2022/02/25 03:48:35;;;;;;;;;;;23.70;46.10;;;;;;1553591;75;750;-69
2022/02/25 03:50:38;;;;;;;;;;;23.70;46.10;;;;;;1558108;75;820;-69
2022/02/25 03:52:40;;;;;;;;;;;23.70;46.10;;;;;;1569284;75;769;-68
2022/02/25 03:54:41;;;;;;;;;;;23.70;46.00;;;;;;1566899;75;1105;-70
2022/02/25 03:56:43;;;;;;;;;;;23.80;46.00;;;;;;1564419;75;732;-69
2022/02/25 03:58:45;;;;;;;;;;;23.80;46.00;;;;;;1573631;75;1931;-68
2022/02/25 04:00:47;;;;;;;;;;;23.90;45.90;;;;;;1571868;75;736;-69
2022/02/25 04:02:49;;;;;;;;;;;24.00;45.80;;;;;;1569023;75;721;-69
2022/02/25 04:04:51;;;;;;;;;;;24.00;45.70;;;;;;1571834;74;1159;-67
2022/02/25 04:06:53;;;;;;;;;;;24.10;45.80;;;;;;1558814;75;680;-69
2022/02/25 04:08:55;;;;;;;;;;;24.10;45.70;;;;;;1570322;75;693;-68
2022/02/25 04:10:57;;;;;;;;;;;24.10;45.80;;;;;;1565347;75;750;-68
2022/02/25 04:12:59;;;;;;;;;;;24.10;45.70;;;;;;1570400;75;745;-71
2022/02/25 04:15:00;;;;;;;;;;;24.10;45.60;;;;;;1574041;74;1139;-68
2022/02/25 04:17:03;;;;;;;;;;;24.20;45.60;;;;;;1561112;75;781;-68
2022/02/25 04:19:05;;;;;;;;;;;24.20;45.50;;;;;;1564927;75;1906;-70
2022/02/25 04:21:07;;;;;;;;;;;24.30;45.60;;;;;;1572473;75;731;-68
2022/02/25 04:23:09;;;;;;;;;;;24.20;45.40;;;;;;1565162;75;757;-70
2022/02/25 04:25:11;;;;;;;;;;;24.20;45.40;;;;;;1569926;75;1136;-68
2022/02/25 04:27:13;;;;;;;;;;;24.30;45.40;;;;;;1569736;75;764;-68
2022/02/25 04:29:16;;;;;;;;;;;24.30;45.40;;;;;;1566116;75;722;-68
2022/02/25 04:31:18;;;;;;;;;;;24.30;45.30;;;;;;1565377;75;774;-69
2022/02/25 04:33:20;;;;;;;;;;;24.20;45.20;;;;;;1559702;75;797;-69
2022/02/25 04:35:22;;;;;;;;;;;24.30;45.30;;;;;;1555883;75;1151;-69
2022/02/25 04:37:24;;;;;;;;;;;24.30;45.30;;;;;;1561389;75;1914;-71
2022/02/25 04:39:26;;;;;;;;;;;24.30;45.30;;;;;;1553060;75;668;-67
2022/02/25 04:41:28;;;;;;;;;;;24.30;45.20;;;;;;1565438;75;744;-69
2022/02/25 04:43:29;;;;;;;;;;;24.30;45.20;;;;;;1565313;75;715;-71
2022/02/25 04:45:31;;;;;;;;;;;24.30;45.20;;;;;;1564758;75;1124;-70
2022/02/25 04:47:33;;;;;;;;;;;24.30;45.20;;;;;;1559553;75;669;-70
2022/02/25 04:49:35;;;;;;;;;;;24.30;45.20;;;;;;1567146;75;673;-71
2022/02/25 04:51:37;;;;;;;;;;;24.30;45.20;;;;;;1565500;75;738;-71
2022/02/25 04:53:39;;;;;;;;;;;24.40;45.20;;;;;;1557190;75;662;-70
2022/02/25 04:55:41;;;;;;;;;;;24.40;45.20;;;;;;1556369;75;1093;-67
2022/02/25 04:57:43;;;;;;;;;;;24.40;45.20;;;;;;1565249;75;1919;-69
2022/02/25 04:59:44;;;;;;;;;;;24.40;45.20;;;;;;1556353;75;726;-67
2022/02/25 05:01:46;;;;;;;;;;;24.40;45.20;;;;;;1549451;75;703;-67
2022/02/25 05:03:49;;;;;;;;;;;24.40;45.20;;;;;;1553860;75;724;-69
2022/02/25 05:05:50;;;;;;;;;;;24.50;45.20;;;;;;1554186;75;1156;-69
2022/02/25 05:07:52;;;;;;;;;;;24.50;45.20;;;;;;1550419;75;722;-69
2022/02/25 05:09:54;;;;;;;;;;;24.40;45.00;;;;;;1552560;75;783;-70
2022/02/25 05:11:56;;;;;;;;;;;24.40;45.00;;;;;;1550505;75;734;-69
2022/02/25 05:13:58;;;;;;;;;;;24.50;45.10;;;;;;1567371;75;1077;-68
2022/02/25 05:20:40;;;;;;;;;;;24.50;45.10;;;;;;1556027;75;1631;-68
2022/02/25 05:22:42;;;;;;;;;;;24.50;45.10;;;;;;1544827;75;728;-67
2022/02/25 05:24:44;;;;;;;;;;;24.50;45.10;;;;;;1557247;75;1117;-68
2022/02/25 05:26:46;;;;;;;;;;;24.50;45.10;;;;;;1556103;75;781;-68
2022/02/25 05:28:48;;;;;;;;;;;24.50;45.00;;;;;;1558348;75;698;-68
2022/02/25 05:30:50;;;;;;;;;;;24.50;45.00;;;;;;1560373;75;761;-68
2022/02/25 05:32:52;;;;;;;;;;;24.50;45.00;;;;;;1569335;75;706;-69
2022/02/25 05:34:54;;;;;;;;;;;24.40;45.10;;;;;;1559585;74;1155;-69
2022/02/25 05:36:56;;;;;;;;;;;24.40;45.20;;;;;;1555471;75;792;-68
2022/02/25 05:38:58;;;;;;;;;;;24.40;45.20;;;;;;1556419;75;1945;-66
2022/02/25 05:40:59;;;;;;;;;;;24.50;45.10;;;;;;1556046;75;746;-67
2022/02/25 05:43:01;;;;;;;;;;;24.50;45.00;;;;;;1551954;75;753;-67
2022/02/25 05:45:03;;;;;;;;;;;24.60;44.90;;;;;;1554990;75;1126;-67
2022/02/25 05:47:05;;;;;;;;;;;24.50;44.90;;;;;;1551140;75;890;-67
2022/02/25 05:49:07;;;;;;;;;;;24.50;44.80;;;;;;1561681;75;700;-68
2022/02/25 05:51:09;;;;;;;;;;;24.50;44.80;;;;;;1556461;75;723;-67
2022/02/25 05:53:11;;;;;;;;;;;24.50;44.80;;;;;;1551475;75;770;-68
2022/02/25 05:55:14;;;;;;;;;;;24.50;44.90;;;;;;1556955;75;1160;-69
2022/02/25 05:57:16;;;;;;;;;;;24.50;44.80;;;;;;1550578;75;717;-68
2022/02/25 05:59:17;;;;;;;;;;;24.40;44.70;;;;;;1556001;75;1931;-66
2022/02/25 06:01:20;;;;;;;;;;;24.40;44.70;;;;;;1556404;75;703;-68
2022/02/25 06:03:21;;;;;;;;;;;24.40;44.80;;;;;;1556213;75;716;-68
2022/02/25 06:05:23;;;;;;;;;;;24.50;44.90;;;;;;1569302;74;1233;-68
2022/02/25 06:07:25;;;;;;;;;;;24.50;44.90;;;;;;1559264;75;728;-68
2022/02/25 06:09:27;;;;;;;;;;;24.50;44.90;;;;;;1570330;75;716;-67
2022/02/25 06:11:29;;;;;;;;;;;24.40;44.70;;;;;;1558896;75;730;-68
2022/02/25 06:13:31;;;;;;;;;;;24.50;44.90;;;;;;1562021;75;727;-72
2022/02/25 06:15:33;;;;;;;;;;;24.50;44.90;;;;;;1556471;75;1148;-74
2022/02/25 06:17:36;;;;;;;;;;;24.50;44.90;;;;;;1561323;75;735;-71
2022/02/25 06:19:38;;;;;;;;;;;24.60;44.90;;;;;;1557428;75;1947;-67
2022/02/25 06:21:40;;;;;;;;;;;24.60;44.90;;;;;;1556506;75;780;-70
2022/02/25 06:23:42;;;;;;;;;;;24.50;44.90;;;;;;1552582;75;698;-71
2022/02/25 06:25:44;;;;;;;;;;;24.50;44.90;;;;;;1548363;75;1087;-71
2022/02/25 06:27:45;;;;;;;;;;;24.50;44.90;;;;;;1552943;75;680;-71
2022/02/25 06:29:47;;;;;;;;;;;24.60;44.80;;;;;;1556501;75;720;-71
2022/02/25 06:31:49;;;;;;;;;;;24.50;44.90;;;;;;1543550;75;800;-72
2022/02/25 06:33:51;;;;;;;;;;;24.50;44.90;;;;;;1544028;75;799;-71
2022/02/25 06:35:53;;;;;;;;;;;24.60;44.90;;;;;;1548901;75;1131;-72
2022/02/25 06:37:56;;;;;;;;;;;24.50;44.90;;;;;;1553139;76;724;-71
2022/02/25 06:39:58;;;;;;;;;;;24.50;44.80;;;;;;1552467;75;1931;-72
2022/02/25 06:41:59;;;;;;;;;;;24.60;44.80;;;;;;1550786;75;743;-71
2022/02/25 06:44:01;;;;;;;;;;;24.50;44.80;;;;;;1556258;75;711;-72
2022/02/25 06:46:03;;;;;;;;;;;24.60;44.80;;;;;;1548283;75;1089;-69
2022/02/25 06:48:05;;;;;;;;;;;24.60;44.90;;;;;;1566484;75;688;-72
2022/02/25 06:50:08;;;;;;;;;;;24.60;44.80;;;;;;1552523;75;715;-72
2022/02/25 06:52:10;;;;;;;;;;;24.50;44.80;;;;;;1553015;75;806;-67
2022/02/25 06:54:12;;;;;;;;;;;24.50;44.70;;;;;;1555895;76;1110;-68
2022/02/25 06:56:14;;;;;;;;;;;24.40;44.70;;;;;;1553194;75;932;-67
2022/02/25 06:58:17;;;;;;;;;;;24.40;44.70;;;;;;1554201;75;1934;-65
2022/02/25 07:00:22;;;;;;;;;;;24.40;44.70;;;;;;1555672;75;647;-68
2022/02/25 07:02:24;;;;;;;;;;;24.30;44.70;;;;;;1553336;75;627;-68
2022/02/25 07:04:26;;;;;;;;;;;24.40;44.80;;;;;;1556208;75;1155;-69
2022/02/25 07:06:28;;;;;;;;;;;24.30;44.90;;;;;;1549317;75;640;-68
2022/02/25 07:08:29;;;;;;;;;;;24.30;44.80;;;;;;1555777;75;675;-69
2022/02/25 07:10:32;;;;;;;;;;;24.30;44.90;;;;;;1552468;75;675;-68
2022/02/25 07:12:34;;;;;;;;;;;24.30;44.80;;;;;;1560723;75;719;-68
2022/02/25 07:14:36;;;;;;;;;;;24.20;44.70;;;;;;1552444;75;1159;-66
2022/02/25 07:16:37;;;;;;;;;;;24.30;44.90;;;;;;1556609;75;693;-72
2022/02/25 07:18:39;;;;;;;;;;;24.30;44.90;;;;;;1554452;75;1935;-79
2022/02/25 07:20:41;;;;;;;;;;;24.30;44.90;;;;;;1558675;75;735;-78
2022/02/25 07:22:43;;;;;;;;;;;24.20;44.50;;;;;;1560762;75;721;-78
2022/02/25 07:24:45;;;;;;;;;;;24.20;44.20;;;;;;1560627;75;1246;-78
2022/02/25 07:26:47;;;;;;;;;;;24.10;43.80;;;;;;1556060;75;728;-80
2022/02/25 07:28:49;;;;;;;;;;;24.10;43.30;;;;;;1561306;75;793;-79
2022/02/25 07:30:52;;;;;;;;;;;24.00;42.60;;;;;;1558705;75;699;-77
2022/02/25 07:32:54;;;;;;;;;;;24.00;41.90;;;;;;1549294;75;715;-77
2022/02/25 07:34:56;;;;;;;;;;;24.00;41.50;;;;;;1571696;75;1113;-80
2022/02/25 07:36:58;;;;;;;;;;;23.90;41.00;;;;;;1573056;75;704;-77
2022/02/25 07:39:00;;;;;;;;;;;23.80;40.50;;;;;;1565644;75;1926;-77
2022/02/25 07:41:02;;;;;;;;;;;23.80;40.10;;;;;;1551463;75;729;-75
2022/02/25 07:43:04;;;;;;;;;;;23.70;39.70;;;;;;1532236;75;734;-73
2022/02/25 07:45:06;;;;;;;;;;;23.70;39.30;;;;;;1556402;75;1150;-73
2022/02/25 07:47:08;;;;;;;;;;;23.70;38.80;;;;;;1562633;75;721;-75
2022/02/25 07:49:10;;;;;;;;;;;23.60;38.40;;;;;;1550073;75;675;-74
2022/02/25 07:51:12;;;;;;;;;;;23.60;38.40;;;;;;1550795;76;687;-73
2022/02/25 07:53:14;;;;;;;;;;;23.60;38.00;;;;;;1558036;75;688;-74
2022/02/25 07:55:15;;;;;;;;;;;23.50;38.00;;;;;;1549027;75;1148;-74
2022/02/25 07:57:18;;;;;;;;;;;23.40;37.50;;;;;;1538383;75;743;-75
2022/02/25 07:59:20;;;;;;;;;;;23.30;37.30;;;;;;1560129;75;1913;-74
2022/02/25 08:01:22;;;;;;;;;;;23.30;37.10;;;;;;1555562;75;612;-74
2022/02/25 08:03:24;;;;;;;;;;;23.30;36.90;;;;;;1551805;75;741;-74
2022/02/25 08:05:26;;;;;;;;;;;23.30;36.70;;;;;;1554691;75;1152;-75
2022/02/25 08:07:28;;;;;;;;;;;23.30;36.60;;;;;;1556362;75;655;-74
2022/02/25 08:09:30;;;;;;;;;;;23.20;36.40;;;;;;1564722;75;626;-75
2022/02/25 08:11:32;;;;;;;;;;;23.10;36.40;;;;;;1568395;75;639;-74
2022/02/25 08:13:34;;;;;;;;;;;23.10;36.30;;;;;;1552091;76;707;-76
2022/02/25 08:15:36;;;;;;;;;;;23.00;36.00;;;;;;1554281;75;1133;-75
2022/02/25 08:17:38;;;;;;;;;;;23.00;35.90;;;;;;1560834;75;674;-76
2022/02/25 08:19:40;;;;;;;;;;;23.00;35.90;;;;;;1561020;75;1938;-75
2022/02/25 08:21:42;;;;;;;;;;;23.00;35.70;;;;;;1557718;75;736;-74
2022/02/25 08:23:44;;;;;;;;;;;22.90;35.60;;;;;;1557737;75;733;-75
2022/02/25 08:25:46;;;;;;;;;;;22.90;35.50;;;;;;1590696;73;3103;-73
2022/02/25 08:27:48;;;;;;;;;;;22.90;35.50;;;;;;1617900;73;868;-72
2022/02/25 08:29:49;;;;;;;;;;;22.90;35.50;;;;;;1618232;73;741;-72
2022/02/25 08:31:51;;;;;;;;;;;22.90;35.50;;;;;;1618335;73;772;-73
2022/02/25 08:33:53;;;;;;;;;;;22.90;35.30;;;;;;1615297;73;754;-73
2022/02/25 08:35:55;;;;;;;;;;;22.90;35.30;;;;;;1596900;72;1188;-74
2022/02/25 08:37:57;;;;;;;;;;;23.00;35.50;;;;;;1592226;73;784;-73
2022/02/25 08:39:59;;;;;;;;;;;22.90;35.10;;;;;;1589244;73;1944;-73
2022/02/25 08:42:01;;;;;;;;;;;23.00;35.10;;;;;;1589052;73;976;-73
2022/02/25 08:44:03;;;;;;;;;;;22.90;35.20;;;;;;1591829;73;701;-73
2022/02/25 08:46:05;;;;;;;;;;;22.90;34.80;;;;;;1595106;73;1150;-73
2022/02/25 08:48:08;;;;;;;;;;;23.00;35.10;;;;;;1597719;73;709;-73
2022/02/25 08:50:10;;;;;;;;;;;23.00;34.70;;;;;;1593962;73;718;-74
2022/02/25 08:52:12;;;;;;;;;;;22.90;34.70;;;;;;1593636;73;734;-72
2022/02/25 08:54:16;;;;;;;;;;;22.90;34.70;;;;;;1606690;73;714;-73
2022/02/25 08:56:18;;;;;;;;;;;22.90;34.30;;;;;;1600841;73;1091;-73
2022/02/25 08:58:20;;;;;;;;;;;22.90;35.00;;;;;;1602483;73;800;-77
2022/02/25 09:00:22;;;;;;;;;;;23.00;35.30;;;;;;1607647;73;1913;-72
2022/02/25 09:02:24;;;;;;;;;;;23.00;35.70;;;;;;1607861;73;724;-73
2022/02/25 09:04:26;;;;;;;;;;;23.00;35.70;;;;;;1612888;73;717;-72
2022/02/25 09:06:28;;;;;;;;;;;23.10;36.10;;;;;;1604142;72;1161;-72
2022/02/25 09:08:30;;;;;;;;;;;23.00;35.80;;;;;;1596551;72;713;-73
2022/02/25 09:10:32;;;;;;;;;;;23.10;36.20;;;;;;1610044;73;765;-71
2022/02/25 09:12:34;;;;;;;;;;;23.10;36.40;;;;;;1616523;73;744;-72
2022/02/25 09:14:36;;;;;;;;;;;23.10;36.30;;;;;;1611445;72;1146;-72
2022/02/25 09:16:38;;;;;;;;;;;23.00;36.20;;;;;;1612615;73;727;-78
2022/02/25 09:18:40;;;;;;;;;;;23.10;36.40;;;;;;1598182;73;594;-73
2022/02/25 09:20:43;;;;;;;;;;;23.10;36.40;;;;;;1601638;73;1944;-74
2022/02/25 09:22:45;;;;;;;;;;;23.10;36.30;;;;;;1591756;73;775;-72
2022/02/25 09:24:47;;;;;;;;;;;23.10;36.30;;;;;;1597176;73;1095;-71
2022/02/25 09:26:49;;;;;;;;;;;23.10;36.40;;;;;;1585520;73;728;-73
2022/02/25 09:28:51;;;;;;;;;;;23.10;36.40;;;;;;1592657;73;736;-71
2022/02/25 09:30:53;;;;;;;;;;;23.20;36.30;;;;;;1590257;73;786;-67
2022/02/25 09:32:55;;;;;;;;;;;23.20;36.10;;;;;;1590219;73;716;-67
2022/02/25 09:34:57;;;;;;;;;;;23.20;36.30;;;;;;1590249;73;1165;-70
2022/02/25 09:36:59;;;;;;;;;;;23.20;36.40;;;;;;1590097;73;817;-68
2022/02/25 09:39:01;;;;;;;;;;;23.20;36.50;;;;;;1601265;73;809;-70
2022/02/25 09:41:04;;;;;;;;;;;23.20;36.40;;;;;;1606311;73;1948;-68
2022/02/25 09:43:06;;;;;;;;;;;23.20;35.60;;;;;;1593572;73;766;-66
2022/02/25 09:45:09;;;;;;;;;;;23.20;34.70;;;;;;1596389;73;1187;-70
2022/02/25 09:47:11;;;;;;;;;;;23.10;34.40;;;;;;1594802;73;711;-69
2022/02/25 09:49:13;;;;;;;;;;;23.10;33.90;;;;;;1590122;73;698;-69
2022/02/25 09:51:15;;;;;;;;;;;23.00;34.20;;;;;;1595423;73;765;-67
2022/02/25 09:53:17;;;;;;;;;;;23.10;34.40;;;;;;1596989;73;727;-68
2022/02/25 09:55:30;;;;;;;;;;;23.00;34.40;;;;;;1586738;73;1128;-67
2022/02/25 09:57:32;;;;;;;;;;;23.00;34.40;;;;;;1600850;73;800;-67
2022/02/25 09:59:34;;;;;;;;;;;23.00;34.70;;;;;;1589374;73;2247;-67
2022/02/25 10:01:36;;;;;;;;;;;23.00;34.60;;;;;;1589253;73;761;-67
2022/02/25 10:03:38;;;;;;;;;;;23.00;34.70;;;;;;1592512;73;813;-68
2022/02/25 10:05:41;;;;;;;;;;;23.00;34.70;;;;;;1589764;73;1142;-65
2022/02/25 10:07:43;;;;;;;;;;;23.00;34.60;;;;;;1602616;73;803;-69
2022/02/25 10:09:45;;;;;;;;;;;23.00;34.50;;;;;;1589497;73;818;-66
2022/02/25 10:11:57;;;;;;;;;;;23.00;34.60;;;;;;1589577;73;734;-69
2022/02/25 10:14:11;;;;;;;;;;;23.00;34.20;;;;;;1599873;73;1526;-71
2022/02/25 10:16:13;;;;;;;;;;;23.00;35.00;;;;;;1597846;73;1122;-69
2022/02/25 10:18:16;;;;;;;;;;;23.00;35.20;;;;;;1593764;73;823;-68
2022/02/25 10:20:18;;;;;;;;;;;23.20;35.50;;;;;;1594380;73;1937;-71
2022/02/25 10:22:22;;;;;;;;;;;23.10;35.60;;;;;;1585506;74;767;-72
2022/02/25 10:24:23;;;;;;;;;;;23.10;35.60;;;;;;1590901;73;715;-71
2022/02/25 10:26:27;;;;;;;;;;;23.20;35.60;;;;;;1591805;73;1150;-71
2022/02/25 10:28:29;;;;;;;;;;;23.20;35.70;;;;;;1595612;73;608;-71
2022/02/25 10:30:32;;;;;;;;;;;23.20;35.70;;;;;;1591090;73;739;-71
2022/02/25 10:32:40;;;;;;;;;;;23.30;35.90;;;;;;1589030;73;706;-71
2022/02/25 10:34:42;;;;;;;;;;;23.30;36.00;;;;;;1587158;73;1123;-70
2022/02/25 10:36:47;;;;;;;;;;;23.20;36.00;;;;;;1594522;73;715;-71
2022/02/25 10:38:49;;;;;;;;;;;23.30;36.20;;;;;;1600240;73;909;-70
2022/02/25 10:40:51;;;;;;;;;;;23.30;36.30;;;;;;1589209;73;1935;-73
2022/02/25 10:42:53;;;;;;;;;;;23.30;36.30;;;;;;1595902;73;803;-70
2022/02/25 10:45:02;;;;;;;;;;;23.30;36.30;;;;;;1590133;73;1143;-73
2022/02/25 10:47:18;;;;;;;;;;;23.30;36.40;;;;;;1594160;73;1565;-72
2022/02/25 10:49:21;;;;;;;;;;;23.30;36.50;;;;;;1598352;73;752;-72
2022/02/25 10:51:23;;;;;;;;;;;23.30;36.50;;;;;;1561461;75;789;-70
2022/02/25 10:53:32;;;;;;;;;;;23.30;36.60;;;;;;1584610;74;677;-70
2022/02/25 10:55:34;;;;;;;;;;;23.30;36.80;;;;;;1592659;74;1148;-72
2022/02/25 10:57:36;;;;;;;;;;;23.40;36.80;;;;;;1582239;74;695;-72
2022/02/25 10:59:45;;;;;;;;;;;23.30;36.90;;;;;;1582659;74;1916;-71
2022/02/25 11:01:46;;;;;;;;;;;23.30;37.00;;;;;;1589134;74;728;-74
2022/02/25 11:04:01;;;;;;;;;;;23.30;37.00;;;;;;1592538;74;741;-71
2022/02/25 11:06:05;;;;;;;;;;;23.30;36.90;;;;;;1583133;74;1061;-70
2022/02/25 11:08:07;;;;;;;;;;;23.30;36.80;;;;;;1581016;74;1767;-73
2022/02/25 11:10:09;;;;;;;;;;;23.30;36.90;;;;;;1580966;74;751;-70
2022/02/25 11:12:11;;;;;;;;;;;23.30;36.90;;;;;;1582847;74;698;-71
2022/02/25 11:14:13;;;;;;;;;;;23.30;37.00;;;;;;1581061;74;800;-71
2022/02/25 11:16:16;;;;;;;;;;;23.30;37.10;;;;;;1563892;75;1113;-71
2022/02/25 11:18:18;;;;;;;;;;;23.30;37.10;;;;;;1581731;74;728;-71
2022/02/25 11:20:21;;;;;;;;;;;23.20;37.10;;;;;;1583409;74;1941;-71
2022/02/25 11:22:23;;;;;;;;;;;23.30;37.20;;;;;;1581690;74;752;-71
2022/02/25 11:24:24;;;;;;;;;;;23.30;37.30;;;;;;1593876;74;713;-71
2022/02/25 11:26:26;;;;;;;;;;;23.30;37.30;;;;;;1578339;74;1153;-72
2022/02/25 11:28:28;;;;;;;;;;;23.30;37.50;;;;;;1570394;74;668;-72
2022/02/25 11:30:32;;;;;;;;;;;23.30;37.60;;;;;;1583690;74;795;-72
2022/02/25 11:32:44;;;;;;;;;;;23.30;37.70;;;;;;1581169;74;699;-70
2022/02/25 11:34:46;;;;;;;;;;;23.30;37.80;;;;;;1580528;74;1699;-73
2022/02/25 11:36:51;;;;;;;;;;;23.30;38.10;;;;;;1589257;74;816;-70
2022/02/25 11:38:53;;;;;;;;;;;23.40;38.20;;;;;;1594415;74;729;-71
2022/02/25 11:40:56;;;;;;;;;;;23.30;38.30;;;;;;1581273;74;1958;-71
2022/02/25 11:43:00;;;;;;;;;;;23.30;38.50;;;;;;1581290;74;834;-70
2022/02/25 11:45:06;;;;;;;;;;;23.30;38.80;;;;;;1585052;72;1130;-71
2022/02/25 11:47:08;;;;;;;;;;;23.40;38.90;;;;;;1585580;74;1126;-71
2022/02/25 11:49:15;;;;;;;;;;;23.40;39.10;;;;;;1595453;74;710;-76
2022/02/25 11:51:27;;;;;;;;;;;23.40;39.30;;;;;;1581136;74;757;-71
2022/02/25 11:53:29;;;;;;;;;;;23.30;39.40;;;;;;1580922;74;712;-71
2022/02/25 11:55:32;;;;;;;;;;;23.40;39.70;;;;;;1579761;72;1149;-68
2022/02/25 11:57:34;;;;;;;;;;;23.30;39.90;;;;;;1589949;74;1405;-73
2022/02/25 11:59:38;;;;;;;;;;;23.30;40.00;;;;;;1587148;74;728;-73
2022/02/25 12:01:44;;;;;;;;;;;23.40;40.10;;;;;;1580993;74;1954;-71
2022/02/25 12:04:03;;;;;;;;;;;23.40;40.20;;;;;;1581722;74;1134;-71
2022/02/25 12:06:05;;;;;;;;;;;23.30;40.40;;;;;;1585892;74;1305;-72
2022/02/25 12:08:20;;;;;;;;;;;23.30;40.50;;;;;;1583712;74;817;-72
2022/02/25 12:10:27;;;;;;;;;;;23.30;40.50;;;;;;1583211;74;807;-71
2022/02/25 12:12:27;;;;;;;;;;;23.30;40.60;;;;;;1583192;74;1670;-71
2022/02/25 12:14:47;;;;;;;;;;;23.40;40.50;;;;;;1584058;72;1153;-72